Time;durP1;ratioP1;P1;durP2;ratioP2;P2;SDS_P1;SDS_P2;PMS_P1;PMS_P2;Temp;Humidity;BMP_temperature;BMP_pressure;BME280_temperature;BME280_humidity;BME280_pressure;Samples;Min_cycle;Max_cycle;Signal;HPM_P1;HPM_P2
2022/04/01 00:00:15;;;;;;;35.80;7.50;;;14.30;88.90;;;14.43;59.32;93401.25;5086785;28;20481;-58
2022/04/01 00:02:43;;;;;;;27.73;7.00;;;14.30;89.20;;;14.42;59.27;93388.22;5084795;28;20435;-57
2022/04/01 00:05:12;;;;;;;50.77;7.63;;;14.30;89.30;;;14.41;58.99;93371.53;5086485;28;20498;-56
2022/04/01 00:07:40;;;;;;;33.63;6.97;;;14.30;88.70;;;14.43;58.99;93376.63;5086705;28;20620;-55
2022/04/01 00:10:09;;;;;;;44.03;7.20;;;14.30;89.20;;;14.42;58.91;93352.03;5086677;28;20470;-58
2022/04/01 00:12:40;;;;;;;33.50;6.90;;;14.30;89.00;;;14.42;58.96;93351.19;5086338;28;20834;-56
2022/04/01 00:15:09;;;;;;;33.90;7.20;;;14.30;88.70;;;14.40;59.11;93354.03;5084938;28;20847;-56
2022/04/01 00:17:37;;;;;;;50.63;7.00;;;14.30;89.50;;;14.40;58.92;93354.03;5084410;28;21032;-58
2022/04/01 00:20:05;;;;;;;23.93;6.90;;;14.30;88.60;;;14.43;58.95;93331.66;5086182;28;20519;-57
2022/04/01 00:22:34;;;;;;;35.27;7.63;;;14.30;88.90;;;14.38;59.25;93319.03;5085799;28;20453;-57
2022/04/01 00:25:01;;;;;;;35.97;7.53;;;14.30;89.20;;;14.35;59.40;93312.31;5085991;28;20473;-55
2022/04/01 00:27:28;;;;;;;27.53;7.70;;;14.20;89.30;;;14.32;59.14;93336.50;5086439;28;20515;-56
2022/04/01 00:29:56;;;;;;;37.33;7.97;;;14.20;89.90;;;14.32;58.92;93347.09;5086523;28;20501;-55
2022/04/01 00:32:23;;;;;;;25.40;7.60;;;14.20;89.20;;;14.33;59.27;93346.09;5086676;28;20449;-55
2022/04/01 00:34:51;;;;;;;62.50;9.93;;;14.20;89.50;;;14.33;59.13;93346.09;5086060;28;20959;-57
2022/04/01 00:37:18;;;;;;;57.57;8.63;;;14.20;89.50;;;14.33;59.09;93375.19;5085128;28;20469;-54
2022/04/01 00:39:47;;;;;;;52.37;10.03;;;14.20;89.40;;;14.32;59.03;93349.75;5086114;28;20832;-57
2022/04/01 00:42:14;;;;;;;38.63;7.33;;;14.20;89.10;;;14.33;59.17;93337.34;5085879;28;20450;-54
2022/04/01 00:44:42;;;;;;;38.00;8.60;;;14.20;89.20;;;14.34;58.79;93345.09;5085934;28;20466;-54
2022/04/01 00:47:11;;;;;;;57.87;8.70;;;14.20;89.00;;;14.34;59.05;93334.50;5086068;28;20485;-56
2022/04/01 00:49:39;;;;;;;48.27;10.00;;;14.20;89.00;;;14.32;59.13;93355.03;5085893;28;20712;-57
2022/04/01 00:52:08;;;;;;;39.60;7.47;;;14.20;89.10;;;14.31;58.83;93340.19;5082100;28;20458;-53
2022/04/01 00:54:36;;;;;;;37.53;7.83;;;14.20;89.00;;;14.30;59.15;93346.50;5085782;28;20470;-57
2022/04/01 00:57:06;;;;;;;34.70;7.40;;;14.20;89.40;;;14.29;59.46;93331.63;5086099;28;20468;-58
2022/04/01 00:59:33;;;;;;;35.87;7.50;;;14.20;89.50;;;14.27;59.82;93344.25;5085724;28;20481;-58
2022/04/01 01:02:01;;;;;;;40.50;8.20;;;14.20;90.00;;;14.23;59.61;93343.00;5084757;28;20523;-55
2022/04/01 01:04:29;;;;;;;43.07;9.57;;;14.10;90.00;;;14.24;59.42;93331.44;5085685;28;20466;-54
2022/04/01 01:06:58;;;;;;;33.43;8.93;;;14.10;89.80;;;14.24;59.32;93347.28;5085988;28;20501;-56
2022/04/01 01:09:26;;;;;;;27.77;6.43;;;14.10;89.40;;;14.26;59.36;93347.09;5085705;28;20481;-57
2022/04/01 01:11:54;;;;;;;62.67;9.40;;;14.10;89.70;;;14.25;59.33;93342.81;5085696;28;20489;-57
2022/04/01 01:14:26;;;;;;;48.97;9.53;;;14.10;89.60;;;14.24;59.37;93370.28;5085566;28;20474;-56
2022/04/01 01:16:54;;;;;;;56.07;9.97;;;14.10;89.60;;;14.23;58.92;93356.22;5080641;28;20777;-58
2022/04/01 01:19:21;;;;;;;34.43;7.90;;;14.10;89.40;;;14.25;59.22;93345.44;5085989;28;20562;-58
2022/04/01 01:21:52;;;;;;;52.53;9.40;;;14.10;89.30;;;14.26;59.27;93357.66;5085472;28;20453;-56
2022/04/01 01:24:31;;;;;;;49.50;8.13;;;14.10;89.60;;;14.27;59.06;93349.53;5084589;28;20454;-54
2022/04/01 01:26:59;;;;;;;54.07;9.70;;;14.10;89.20;;;14.26;59.29;93362.97;5085608;28;20489;-55
2022/04/01 01:29:27;;;;;;;45.20;10.37;;;14.10;89.30;;;14.25;59.13;93351.56;5085686;28;20473;-55
2022/04/01 01:31:55;;;;;;;42.70;7.30;;;14.10;89.40;;;14.26;58.78;93350.53;5084895;28;20460;-55
2022/04/01 01:34:22;;;;;;;46.40;8.70;;;14.20;89.00;;;14.29;58.98;93362.56;5085148;28;20482;-55
2022/04/01 01:36:50;;;;;;;41.83;9.03;;;14.20;89.00;;;14.31;58.84;93334.06;5084907;28;20515;-57
2022/04/01 01:39:17;;;;;;;58.77;9.27;;;14.20;88.80;;;14.32;58.60;93352.38;5084830;28;20459;-54
2022/04/01 01:41:47;;;;;;;46.30;8.27;;;14.20;88.60;;;14.35;58.56;93364.41;5085415;28;20454;-56
2022/04/01 01:44:15;;;;;;;48.00;8.33;;;14.20;88.40;;;14.38;58.27;93361.34;5085564;28;20461;-54
2022/04/01 01:46:42;;;;;;;40.87;9.10;;;14.20;88.10;;;14.40;58.53;93348.75;5085450;28;20512;-57
2022/04/01 01:49:11;;;;;;;51.57;8.27;;;14.30;88.50;;;14.44;58.29;93349.19;5085131;28;20458;-55
2022/04/01 01:57:09;;;;;;;53.80;8.80;;;14.40;87.80;;;14.50;58.19;93338.59;5085473;28;20795;-58
2022/04/01 01:59:36;;;;;;;56.03;7.73;;;14.40;87.70;;;14.51;57.85;93319.03;5085258;28;20496;-55
2022/04/01 02:02:05;;;;;;;46.23;9.57;;;14.40;87.80;;;14.53;58.17;93324.13;5085588;28;20442;-53
2022/04/01 02:04:34;;;;;;;38.17;8.27;;;14.40;87.80;;;14.53;58.12;93314.38;5085138;28;20470;-55
2022/04/01 02:07:01;;;;;;;56.33;8.23;;;14.40;87.90;;;14.54;58.18;93309.88;5084724;28;20489;-56
2022/04/01 02:09:28;;;;;;;44.27;8.83;;;14.40;87.90;;;14.55;57.72;93302.75;5084858;28;20470;-56
2022/04/01 02:11:56;;;;;;;40.47;7.57;;;14.40;87.70;;;14.56;58.14;93307.84;5084731;28;20594;-57
2022/04/01 02:14:25;;;;;;;53.10;9.10;;;14.40;88.00;;;14.57;57.98;93293.59;5086697;28;20473;-55
2022/04/01 02:16:52;;;;;;;36.47;7.10;;;14.50;87.60;;;14.55;58.35;93287.72;5087881;28;20844;-57
2022/04/01 02:19:22;;;;;;;46.60;8.10;;;14.40;87.70;;;14.55;58.33;93287.72;5088430;28;20478;-57
2022/04/01 02:21:51;;;;;;;40.10;7.67;;;14.50;87.90;;;14.56;57.99;93267.34;5087867;28;20446;-54
2022/04/01 02:24:18;;;;;;;31.70;6.30;;;14.40;87.80;;;14.54;58.09;93264.91;5086995;28;20515;-58
2022/04/01 02:26:47;;;;;;;51.70;8.13;;;14.40;87.80;;;14.55;58.39;93271.00;5088181;28;20482;-56
2022/04/01 02:29:16;;;;;;;57.80;9.27;;;14.40;87.90;;;14.53;58.13;93271.22;5088558;28;20457;-58
2022/04/01 02:31:44;;;;;;;60.70;10.13;;;14.40;87.90;;;14.55;58.10;93239.25;5086678;28;20540;-58
2022/04/01 02:34:12;;;;;;;53.47;8.23;;;14.40;88.00;;;14.52;57.93;93240.50;5088737;28;20457;-57
2022/04/01 02:36:39;;;;;;;30.87;8.00;;;14.40;87.80;;;14.53;58.17;93228.88;5088511;28;20515;-55
2022/04/01 02:39:07;;;;;;;39.23;7.47;;;14.40;87.80;;;14.52;58.32;93233.38;5088374;28;20970;-59
2022/04/01 02:41:34;;;;;;;30.87;6.73;;;14.40;87.70;;;14.53;58.14;93236.81;5088497;28;20453;-57
2022/04/01 02:44:09;;;;;;;51.70;8.80;;;14.40;88.30;;;14.51;57.95;93193.91;5088150;28;20454;-56
2022/04/01 02:46:37;;;;;;;49.37;9.87;;;14.40;87.40;;;14.56;57.89;93214.44;5087182;28;20575;-57
2022/04/01 02:49:07;;;;;;;35.93;8.17;;;14.40;87.30;;;14.57;57.72;93202.84;5088342;28;20922;-56
2022/04/01 02:51:37;;;;;;;56.67;9.53;;;14.50;87.20;;;14.59;57.72;93220.13;5088101;28;20450;-54
2022/04/01 02:54:05;;;;;;;50.33;10.93;;;14.50;87.00;;;14.61;57.42;93212.00;5088185;28;20912;-57
2022/04/01 02:56:33;;;;;;;43.50;8.43;;;14.50;86.80;;;14.61;57.70;93183.75;5084799;28;20446;-55
2022/04/01 02:59:00;;;;;;;52.87;7.50;;;14.50;86.70;;;14.62;57.49;93171.31;5087689;28;20536;-57
2022/04/01 03:01:28;;;;;;;61.60;9.33;;;14.50;86.60;;;14.61;57.51;93196.13;5088005;28;20458;-56
2022/04/01 03:03:56;;;;;;;43.63;9.33;;;14.50;87.40;;;14.61;57.59;93181.09;5088009;28;20450;-55
2022/04/01 03:06:25;;;;;;;46.90;8.10;;;14.50;86.70;;;14.59;57.33;93161.13;5087934;28;20521;-55
2022/04/01 03:08:53;;;;;;;48.37;7.57;;;14.50;86.60;;;14.62;57.43;93188.00;5086871;28;20487;-54
2022/04/01 03:11:20;;;;;;;45.37;9.40;;;14.50;86.60;;;14.61;57.67;93194.31;5087585;28;20470;-57
2022/04/01 03:13:47;;;;;;;36.83;7.93;;;14.50;86.60;;;14.61;57.69;93183.75;5087809;28;20450;-58
2022/04/01 03:16:14;;;;;;;38.47;8.67;;;14.50;86.60;;;14.62;57.60;93171.31;5087686;28;20474;-57
2022/04/01 03:18:42;;;;;;;37.00;7.67;;;14.50;86.60;;;14.61;57.28;93170.50;5087283;28;20442;-55
2022/04/01 03:21:10;;;;;;;53.80;9.90;;;14.50;86.30;;;14.63;56.61;93165.00;5088376;28;20481;-56
2022/04/01 03:23:41;;;;;;;58.47;9.73;;;14.50;85.50;;;14.66;56.75;93197.16;5089756;28;20540;-57
2022/04/01 03:26:08;;;;;;;54.77;11.83;;;14.50;85.10;;;14.72;56.25;93189.41;5086797;28;20497;-58
2022/04/01 03:28:35;;;;;;;48.57;11.03;;;14.50;84.50;;;14.76;56.09;93178.19;5087144;28;20450;-55
2022/04/01 03:31:04;;;;;;;41.53;7.80;;;14.60;84.00;;;14.82;55.79;93172.06;5085818;28;20477;-58
2022/04/01 03:33:33;;;;;;;64.60;10.13;;;14.60;83.50;;;14.85;55.00;93184.91;5086715;28;20561;-57
2022/04/01 03:36:00;;;;;;;54.37;8.57;;;14.70;83.40;;;14.89;55.45;93187.97;5093814;28;21638;-59
2022/04/01 03:38:28;;;;;;;40.07;7.00;;;14.80;83.40;;;14.89;55.89;93190.59;5090645;28;20459;-62
2022/04/01 03:40:58;;;;;;;50.80;8.30;;;14.70;83.40;;;14.86;55.65;93209.56;5089766;28;20481;-57
2022/04/01 03:43:25;;;;;;;51.60;9.33;;;14.80;83.30;;;14.84;55.80;93204.47;5085820;28;20472;-55
2022/04/01 03:45:54;;;;;;;60.93;9.83;;;14.80;83.30;;;14.85;55.37;93199.97;5086975;28;20531;-55
2022/04/01 03:48:35;;;;;;;36.77;8.17;;;14.70;82.90;;;14.86;55.55;93161.91;5086765;28;20450;-58
2022/04/01 03:51:04;;;;;;;36.87;7.30;;;14.70;82.90;;;14.85;55.40;93169.00;5085600;28;20473;-56
2022/04/01 03:53:33;;;;;;;66.17;10.33;;;14.70;82.90;;;14.86;55.50;93146.03;5086876;28;21144;-59
2022/04/01 03:56:02;;;;;;;47.33;9.00;;;14.80;82.60;;;14.85;55.01;93171.66;5085441;28;21178;-58
2022/04/01 03:58:31;;;;;;;44.13;7.87;;;14.70;82.30;;;14.86;55.05;93157.41;5085656;28;20454;-54
2022/04/01 04:01:00;;;;;;;45.23;9.60;;;14.80;82.50;;;14.89;54.88;93150.91;5085722;28;20462;-57
2022/04/01 04:03:27;;;;;;;64.13;10.63;;;14.70;81.90;;;14.89;55.02;93140.31;5087128;28;20446;-58
2022/04/01 04:05:55;;;;;;;45.60;9.80;;;14.80;81.80;;;14.88;55.08;93149.25;5084967;28;20478;-54
2022/04/01 04:08:23;;;;;;;75.03;10.40;;;14.70;81.80;;;14.88;55.05;93159.84;5085799;28;20472;-58
2022/04/01 04:10:52;;;;;;;57.97;10.50;;;14.80;81.80;;;14.88;54.90;93171.25;5084637;28;20589;-54
2022/04/01 04:13:25;;;;;;;59.33;10.80;;;14.80;81.60;;;14.90;54.50;93146.41;5086818;28;21022;-55
2022/04/01 04:15:59;;;;;;;49.70;9.63;;;14.70;81.30;;;14.89;54.59;93156.19;5086807;28;20498;-54
2022/04/01 04:18:30;;;;;;;48.20;10.40;;;14.70;80.80;;;14.90;54.92;93165.75;5079422;28;20442;-54
2022/04/01 04:21:11;;;;;;;60.63;11.60;;;14.80;81.40;;;14.90;54.51;93168.38;5086482;28;20482;-58
2022/04/01 04:23:44;;;;;;;79.73;12.93;;;14.80;80.90;;;14.93;54.05;93156.59;5086233;28;20552;-54
2022/04/01 04:26:15;;;;;;;82.97;10.70;;;14.80;80.70;;;14.96;54.30;93153.53;5084900;28;20481;-58
2022/04/01 04:28:49;;;;;;;84.97;11.80;;;14.80;80.70;;;14.98;53.92;93157.59;5086099;28;20477;-55
2022/04/01 04:31:22;;;;;;;87.97;12.00;;;14.80;80.00;;;15.02;53.46;93153.47;5085532;28;20493;-59
2022/04/01 04:33:49;;;;;;;68.07;13.70;;;14.90;79.40;;;15.05;53.35;93163.66;5085345;28;20441;-58
2022/04/01 04:36:19;;;;;;;63.97;11.03;;;14.90;79.00;;;15.12;53.25;93165.47;5082347;28;20462;-54
2022/04/01 04:38:48;;;;;;;84.97;10.97;;;15.00;78.50;;;15.17;53.14;93168.31;5085487;28;20458;-58
2022/04/01 04:41:15;;;;;;;105.00;12.00;;;15.00;78.40;;;15.23;52.99;93193.97;5085395;28;20997;-56
2022/04/01 04:43:45;;;;;;;58.37;10.87;;;15.10;78.10;;;15.27;52.66;93166.00;5082844;28;20450;-55
2022/04/01 04:46:12;;;;;;;61.03;11.57;;;15.10;77.80;;;15.33;52.82;93173.13;5085537;28;20927;-55
2022/04/01 04:48:42;;;;;;;76.17;12.00;;;15.10;77.40;;;15.38;52.50;93177.78;5085043;28;20482;-58
2022/04/01 04:51:10;;;;;;;75.10;11.80;;;15.20;77.10;;;15.40;52.19;93173.91;5084549;28;20469;-55
2022/04/01 04:53:39;;;;;;;86.77;12.20;;;15.20;76.40;;;15.43;52.06;93172.69;5083526;28;20760;-57
2022/04/01 04:56:07;;;;;;;74.27;12.00;;;15.30;76.40;;;15.48;51.43;93175.50;5082237;28;20473;-55
2022/04/01 04:58:39;;;;;;;101.87;12.40;;;15.30;75.60;;;15.54;51.36;93174.66;5084927;28;20481;-56
2022/04/01 05:01:19;;;;;;;96.57;14.30;;;15.40;75.00;;;15.59;51.13;93164.22;5085118;28;21015;-58
2022/04/01 05:04:05;;;;;;;97.33;13.60;;;15.40;74.50;;;15.68;50.87;93166.66;5084280;28;20442;-58
2022/04/01 05:06:39;;;;;;;97.43;12.80;;;15.50;74.20;;;15.73;50.64;93153.56;5084558;28;20866;-56
2022/04/01 05:09:10;;;;;;;66.13;11.63;;;15.60;73.70;;;15.79;50.76;93155.38;5086133;28;20494;-58
2022/04/01 05:11:52;;;;;;;88.67;12.33;;;15.60;73.60;;;15.84;50.40;93160.03;5085485;28;20474;-55
2022/04/01 05:14:38;;;;;;;89.40;11.97;;;15.70;73.10;;;15.88;50.13;93148.78;5085648;28;20801;-55
2022/04/01 05:17:12;;;;;;;96.00;14.80;;;15.70;72.40;;;15.93;49.79;93169.38;5083100;28;20465;-55
2022/04/01 05:19:39;;;;;;;77.87;12.57;;;15.70;71.80;;;15.97;50.00;93170.53;5085375;28;20531;-56
2022/04/01 05:22:07;;;;;;;92.67;13.40;;;15.80;71.60;;;16.03;49.52;93163.56;5085195;28;20442;-58
2022/04/01 05:24:39;;;;;;;94.20;12.97;;;15.80;70.70;;;16.09;49.32;93165.38;5084815;28;20833;-55
2022/04/01 05:27:10;;;;;;;75.80;13.00;;;15.90;71.10;;;16.16;49.62;93158.19;5082378;28;20510;-59
2022/04/01 05:29:40;;;;;;;112.20;14.07;;;16.00;71.10;;;16.23;49.39;93166.88;5085191;28;21065;-57
2022/04/01 05:32:11;;;;;;;116.43;15.07;;;16.00;70.70;;;16.30;49.00;93178.25;5083168;28;20501;-56
2022/04/01 05:34:41;;;;;;;104.30;12.93;;;16.10;69.70;;;16.38;48.57;93185.13;5085128;28;20509;-56
2022/04/01 05:37:09;;;;;;;74.90;11.93;;;16.20;69.30;;;16.43;48.52;93177.31;5085086;28;20449;-58
2022/04/01 05:39:38;;;;;;;71.23;10.87;;;16.20;69.30;;;16.45;48.66;93191.19;5083195;28;20469;-59
2022/04/01 05:42:06;;;;;;;91.97;13.13;;;16.30;69.40;;;16.47;48.65;93194.44;5085261;28;20458;-55
2022/04/01 05:44:34;;;;;;;77.20;9.77;;;16.30;69.40;;;16.49;48.91;93187.06;5085266;28;20509;-58
2022/04/01 05:47:02;;;;;;;74.20;12.70;;;16.30;69.40;;;16.52;48.79;93169.91;5085317;28;20581;-58
2022/04/01 05:49:31;;;;;;;62.50;11.13;;;16.30;69.40;;;16.54;48.79;93177.66;5085650;28;20473;-58
2022/04/01 05:51:58;;;;;;;98.93;13.47;;;16.30;69.40;;;16.59;48.33;93183.09;5089564;28;20944;-58
2022/04/01 05:54:26;;;;;;;112.13;15.73;;;16.40;68.50;;;16.69;47.73;93162.19;5088753;28;20473;-56
2022/04/01 05:56:54;;;;;;;97.50;13.07;;;16.50;67.90;;;16.81;47.18;93172.91;5089864;28;20492;-57
2022/04/01 05:59:23;;;;;;;98.23;13.83;;;16.60;66.30;;;16.93;47.26;93159.72;5089853;28;20474;-58
2022/04/01 06:02:01;;;;;;;126.40;14.40;;;16.70;66.20;;;17.06;46.48;93153.47;5088396;28;20820;-58
2022/04/01 06:04:56;;;;;;;106.70;14.50;;;16.80;64.90;;;17.25;46.11;93167.53;5088699;28;20461;-56
2022/04/01 06:07:29;;;;;;;83.93;14.07;;;17.00;63.50;;;17.39;46.28;93174.31;5087863;28;20522;-56
2022/04/01 06:10:05;;;;;;;89.03;15.10;;;17.10;64.50;;;17.59;46.53;93183.91;5088779;28;21084;-55
2022/04/01 06:12:39;;;;;;;64.37;12.93;;;17.30;64.20;;;17.76;46.66;93182.22;5089010;28;20446;-55
2022/04/01 06:15:13;;;;;;;69.80;11.80;;;17.50;65.60;;;17.92;46.38;93184.28;5087909;28;20497;-54
2022/04/01 06:17:45;;;;;;;69.50;12.40;;;17.60;65.50;;;17.99;46.52;93178.06;5087529;28;20477;-57
2022/04/01 06:20:14;;;;;;;63.90;11.90;;;17.70;65.20;;;18.10;46.44;93194.03;5086688;28;21005;-57
2022/04/01 06:22:49;;;;;;;80.27;12.40;;;17.80;65.60;;;18.31;46.98;93202.56;5089051;28;20555;-57
2022/04/01 06:25:18;;;;;;;92.57;14.17;;;17.90;65.50;;;18.51;46.71;93212.06;5085925;28;20511;-59
2022/04/01 06:27:46;;;;;;;91.40;14.50;;;18.10;65.40;;;18.73;45.99;93206.97;5088617;28;20486;-58
2022/04/01 06:30:15;;;;;;;84.20;13.07;;;18.30;64.90;;;18.89;46.21;93185.00;5088183;28;20523;-60
2022/04/01 06:32:52;;;;;;;62.73;14.00;;;18.50;63.80;;;19.04;45.66;93192.53;5087272;28;20450;-58
2022/04/01 06:35:24;;;;;;;84.43;13.73;;;18.70;63.30;;;19.16;45.11;93206.66;5087590;28;20508;-58
2022/04/01 06:37:57;;;;;;;70.93;10.50;;;18.80;62.80;;;19.28;45.43;93205.81;5088197;28;20899;-57
2022/04/01 06:40:25;;;;;;;75.80;13.63;;;18.90;62.50;;;19.43;45.30;93205.34;5088277;28;20553;-55
2022/04/01 06:42:54;;;;;;;91.37;12.70;;;19.10;62.90;;;19.56;45.08;93199.72;5087743;28;20847;-59
2022/04/01 06:45:21;;;;;;;90.70;11.80;;;19.20;61.40;;;19.77;44.36;93181.47;5087458;28;20473;-54
2022/04/01 06:47:49;;;;;;;81.63;16.27;;;19.40;61.30;;;20.05;44.05;93178.78;5088151;28;20499;-56
2022/04/01 06:50:17;;;;;;;95.70;14.40;;;19.60;60.80;;;20.32;43.15;93182.72;5088373;28;20865;-58
2022/04/01 06:52:46;;;;;;;77.50;12.57;;;19.90;59.20;;;20.43;42.32;93200.50;5087935;28;20536;-57
2022/04/01 06:55:13;;;;;;;75.43;13.93;;;20.00;57.70;;;20.37;42.74;93206.81;5087470;28;20484;-58
2022/04/01 06:57:41;;;;;;;80.87;11.13;;;20.00;57.50;;;20.26;42.10;93194.34;5088663;28;20458;-60
2022/04/01 07:00:11;;;;;;;84.37;11.37;;;20.00;56.60;;;20.12;42.00;93202.66;5087072;28;20469;-58
2022/04/01 07:02:39;;;;;;;70.60;12.67;;;19.90;56.30;;;20.11;42.18;93194.88;5085652;28;20503;-58
2022/04/01 07:05:07;;;;;;;85.67;13.10;;;19.80;56.60;;;20.12;42.74;93188.50;5087364;28;20485;-57
2022/04/01 07:07:34;;;;;;;63.97;10.70;;;19.80;56.50;;;20.12;42.22;93188.50;5087984;28;20490;-56
2022/04/01 07:10:03;;;;;;;67.63;11.50;;;19.80;56.10;;;20.16;42.49;93200.34;5085183;28;20474;-54
2022/04/01 07:12:32;;;;;;;69.13;13.10;;;19.80;56.20;;;20.28;41.37;93194.91;5087692;28;20446;-61
2022/04/01 07:14:59;;;;;;;114.90;13.57;;;20.00;55.60;;;20.42;41.63;93193.56;5088330;28;20469;-57
2022/04/01 07:17:26;;;;;;;99.93;14.30;;;20.10;56.00;;;20.60;41.11;93205.88;5086279;28;20515;-56
2022/04/01 07:19:54;;;;;;;107.90;12.03;;;20.20;54.80;;;20.75;40.90;93203.47;5087913;28;20474;-55
2022/04/01 07:22:21;;;;;;;92.37;12.70;;;20.40;54.90;;;20.87;40.95;93199.91;5087587;28;20454;-56
2022/04/01 07:24:48;;;;;;;79.33;12.07;;;20.50;54.20;;;20.94;40.50;93190.69;5086296;28;20478;-58
2022/04/01 07:27:17;;;;;;;73.97;11.60;;;20.60;53.90;;;21.10;40.59;93198.88;5087421;28;20446;-56
2022/04/01 07:29:45;;;;;;;74.07;13.00;;;20.80;53.80;;;21.21;40.06;93197.16;5087451;28;20564;-55
2022/04/01 07:32:31;;;;;;;69.13;11.90;;;20.90;53.30;;;21.36;39.56;93193.88;5085573;28;20557;-56
2022/04/01 07:34:59;;;;;;;88.67;12.33;;;21.00;52.70;;;21.54;39.83;93171.41;5086771;28;20484;-60
2022/04/01 07:37:26;;;;;;;72.93;11.00;;;21.20;52.70;;;21.69;39.22;93192.16;5085290;28;20481;-59
2022/04/01 07:39:54;;;;;;;87.10;11.40;;;21.30;52.30;;;21.71;39.25;93177.50;5086952;28;20639;-56
2022/04/01 07:42:23;;;;;;;97.33;12.83;;;21.40;51.90;;;21.79;38.99;93168.22;5086413;28;20473;-57
2022/04/01 07:44:51;;;;;;;75.77;12.53;;;21.50;51.70;;;21.99;39.21;93205.91;5083905;28;21005;-58
2022/04/01 07:47:18;;;;;;;65.30;11.77;;;21.60;51.80;;;22.15;38.79;93176.59;5086712;28;20880;-54
2022/04/01 07:49:46;;;;;;;69.87;12.67;;;21.80;51.00;;;22.35;38.02;93182.19;5085918;28;20470;-57
2022/04/01 07:52:14;;;;;;;90.30;11.57;;;22.00;50.50;;;22.59;37.89;93186.38;5086144;28;20544;-55
2022/04/01 07:54:42;;;;;;;73.83;12.93;;;22.30;50.30;;;22.77;37.16;93180.63;5086311;28;20487;-57
2022/04/01 07:57:11;;;;;;;62.77;11.97;;;22.50;49.10;;;22.95;37.44;93174.06;5086116;28;20457;-57
2022/04/01 07:59:40;;;;;;;78.73;13.50;;;22.70;49.10;;;23.08;36.26;93162.06;5086831;28;20470;-55
2022/04/01 08:02:08;;;;;;;91.17;14.00;;;22.90;47.90;;;23.25;36.29;93181.53;5083801;28;20469;-58
2022/04/01 08:04:35;;;;;;;91.63;11.67;;;23.10;47.60;;;;;;5086187;28;20805;-56
2022/04/01 08:07:03;;;;;;;75.53;11.73;;;23.30;47.10;;;23.68;36.58;93186.81;5086034;28;20503;-58
2022/04/01 08:09:30;;;;;;;66.83;12.33;;;23.60;47.70;;;23.94;35.91;93190.41;5085958;28;20494;-58
2022/04/01 08:11:58;;;;;;;83.03;12.40;;;23.80;46.70;;;24.10;36.11;93174.34;5085967;28;20462;-56
2022/04/01 08:14:25;;;;;;;70.93;13.20;;;24.00;46.80;;;24.38;33.97;93178.41;5086433;28;20504;-56
2022/04/01 08:16:54;;;;;;;102.83;15.10;;;24.20;45.10;;;24.55;33.82;93196.97;5084996;28;20447;-59
2022/04/01 08:19:22;;;;;;;95.90;12.23;;;24.40;44.40;;;24.73;33.70;93194.88;5085765;28;20470;-57
2022/04/01 08:21:49;;;;;;;82.07;12.83;;;24.60;44.90;;;24.93;33.12;93212.88;5086134;28;21069;-57
2022/04/01 08:24:17;;;;;;;72.70;12.77;;;24.80;43.70;;;24.95;33.55;93187.31;5085580;28;20990;-56
2022/04/01 08:26:44;;;;;;;73.97;13.33;;;24.90;44.10;;;25.17;33.83;93192.38;5086499;28;20569;-54
2022/04/01 08:29:12;;;;;;;70.07;14.03;;;25.10;44.40;;;25.36;32.55;93208.00;5085889;28;20843;-58
2022/04/01 08:31:39;;;;;;;68.27;11.20;;;25.30;42.80;;;25.28;32.97;93168.94;5085485;28;20841;-58
2022/04/01 08:34:08;;;;;;;80.10;11.60;;;25.30;42.50;;;25.18;32.45;93164.41;5084212;28;20456;-60
2022/04/01 08:36:35;;;;;;;52.77;12.67;;;25.20;42.60;;;25.24;33.04;93171.38;5085411;28;20472;-56
2022/04/01 08:39:03;;;;;;;102.93;12.90;;;25.30;42.70;;;25.30;32.65;93155.25;5085622;28;20530;-58
2022/04/01 08:41:30;;;;;;;71.23;12.97;;;25.20;42.10;;;25.18;32.41;93150.16;5085888;28;20511;-55
2022/04/01 08:43:58;;;;;;;91.90;11.97;;;25.20;42.10;;;25.10;32.28;93153.38;5085496;28;20461;-58
2022/04/01 08:46:25;;;;;;;80.37;13.53;;;25.10;42.40;;;24.89;32.47;93150.75;5085589;28;20535;-59
2022/04/01 08:48:53;;;;;;;75.03;12.60;;;24.90;42.30;;;24.69;33.18;93141.63;5085292;28;20598;-59
2022/04/01 08:51:22;;;;;;;60.20;12.10;;;24.60;43.20;;;24.42;33.67;93133.81;5086003;28;20569;-56
2022/04/01 08:53:49;;;;;;;84.27;12.70;;;24.40;43.60;;;24.12;34.58;93134.56;5084798;28;20521;-56
2022/04/01 08:56:20;;;;;;;81.37;11.53;;;24.00;43.90;;;23.86;34.05;93107.69;5085849;28;20473;-58
2022/04/01 08:58:47;;;;;;;67.23;13.30;;;23.80;44.30;;;23.80;34.53;93119.47;5085124;28;20958;-59
2022/04/01 09:01:15;;;;;;;78.83;12.70;;;23.60;44.80;;;23.85;34.95;93116.81;5084450;28;20523;-59
2022/04/01 09:03:43;;;;;;;81.47;12.90;;;23.60;45.10;;;23.89;34.74;93117.91;5084686;28;20529;-56
2022/04/01 09:06:11;;;;;;;79.17;10.80;;;23.60;45.10;;;23.97;34.62;93098.56;5084132;28;20541;-57
2022/04/01 09:08:41;;;;;;;75.67;13.37;;;23.70;45.00;;;24.07;35.05;93078.97;5085110;28;20534;-58
2022/04/01 09:11:09;;;;;;;66.00;10.90;;;23.70;45.00;;;24.09;35.06;93090.28;5085266;28;20557;-58
2022/04/01 09:13:50;;;;;;;85.97;13.17;;;23.80;45.10;;;23.79;34.51;93074.88;5085347;28;20450;-56
2022/04/01 09:16:28;;;;;;;85.27;13.50;;;23.60;44.90;;;23.56;35.00;93097.66;5085273;28;21008;-57
2022/04/01 09:18:56;;;;;;;85.63;13.17;;;23.40;45.30;;;23.66;35.46;93094.22;5085457;28;21018;-57
2022/04/01 09:21:27;;;;;;;76.00;10.87;;;23.40;45.80;;;23.87;35.36;93062.84;5085780;28;20585;-59
2022/04/01 09:23:56;;;;;;;74.60;11.30;;;23.50;45.60;;;24.01;34.51;93071.97;5084894;28;20438;-58
2022/04/01 09:26:30;;;;;;;104.17;12.20;;;23.60;45.30;;;23.96;34.69;93070.09;5085274;28;20842;-59
2022/04/01 09:28:58;;;;;;;74.77;11.83;;;23.60;44.80;;;23.91;34.88;93080.84;5085863;28;20484;-56
2022/04/01 09:31:26;;;;;;;85.47;12.53;;;23.60;44.90;;;23.96;34.92;93070.09;5083868;28;20454;-57
2022/04/01 09:33:54;;;;;;;91.13;12.50;;;23.60;45.00;;;23.93;34.86;93085.94;5084783;28;20970;-58
2022/04/01 09:36:26;;;;;;;91.33;13.23;;;23.60;44.90;;;23.91;34.11;93098.84;5084596;28;20470;-57
2022/04/01 09:39:00;;;;;;;110.53;13.40;;;23.60;44.80;;;23.87;34.04;93082.44;5084921;28;20838;-57
2022/04/01 09:41:36;;;;;;;94.00;12.13;;;23.60;44.70;;;23.85;35.04;93073.84;5085414;28;20445;-57
2022/04/01 09:44:09;;;;;;;75.53;13.23;;;23.50;44.90;;;23.95;34.70;93065.00;5084413;28;20474;-55
2022/04/01 09:46:42;;;;;;;91.00;14.50;;;23.60;45.10;;;24.09;34.33;93074.16;5085075;28;20938;-57
2022/04/01 09:49:10;;;;;;;66.03;11.40;;;23.70;45.10;;;24.29;34.15;93067.97;5084780;28;20584;-56
2022/04/01 09:51:41;;;;;;;67.13;11.60;;;23.90;44.90;;;24.46;33.80;93066.88;5084705;28;20962;-58
2022/04/01 09:54:10;;;;;;;79.40;12.30;;;24.00;44.50;;;24.74;33.74;93070.09;5084971;28;20461;-58
2022/04/01 09:56:43;;;;;;;57.60;11.53;;;24.30;44.60;;;25.04;32.54;93077.28;5084913;28;20446;-56
2022/04/01 09:59:11;;;;;;;81.53;13.40;;;24.50;43.30;;;25.03;33.08;93054.16;5084667;28;20632;-57
2022/04/01 10:01:39;;;;;;;71.73;12.20;;;24.70;43.10;;;24.90;33.13;93065.50;5083618;28;20450;-55
2022/04/01 10:04:07;;;;;;;90.73;12.33;;;24.60;42.90;;;24.75;33.02;93067.13;5083787;28;20450;-59
2022/04/01 10:06:35;;;;;;;72.07;11.30;;;24.40;42.60;;;24.66;33.21;93074.13;5084890;28;20450;-58
2022/04/01 10:09:04;;;;;;;89.50;12.90;;;24.30;42.80;;;24.60;33.44;93075.22;5084464;28;20650;-55
2022/04/01 10:11:33;;;;;;;80.90;12.43;;;24.30;43.20;;;24.68;33.45;93066.63;5084623;28;20461;-55
2022/04/01 10:14:04;;;;;;;92.43;13.70;;;24.30;43.20;;;24.76;33.60;93070.66;5082338;28;20446;-56
2022/04/01 10:16:35;;;;;;;81.50;11.30;;;24.30;43.30;;;24.64;33.33;93077.09;5084285;28;21052;-58
2022/04/01 10:19:08;;;;;;;66.33;11.30;;;24.30;42.90;;;24.63;33.44;93067.44;5083136;28;20461;-58
2022/04/01 10:21:36;;;;;;;102.83;12.60;;;24.30;43.30;;;24.69;32.97;93044.84;5084761;28;20525;-55